createdAt,value
2022-10-06T03:53:02.735Z,2.92
2022-10-06T03:56:08.794Z,0.98
2022-10-06T03:59:13.295Z,1.12
2022-10-06T04:02:16.444Z,1.55
2022-10-06T04:05:19.026Z,2.10
2022-10-06T04:08:21.130Z,1.87
2022-10-06T04:11:28.734Z,1.23
2022-10-06T04:14:30.905Z,1.37
2022-10-06T04:17:33.509Z,1.12
2022-10-06T04:20:36.103Z,1.45
2022-10-06T04:23:38.889Z,1.92
2022-10-06T04:26:45.372Z,1.62
2022-10-06T04:29:47.911Z,2.37
2022-10-06T04:32:49.992Z,2.60
2022-10-06T04:36:00.889Z,1.33
2022-10-06T04:39:04.754Z,2.08
2022-10-06T04:42:07.663Z,2.05
2022-10-06T04:45:10.437Z,2.53
2022-10-06T04:48:13.966Z,1.17
2022-10-06T04:51:17.131Z,3.10
2022-10-06T04:54:19.856Z,2.85
2022-10-06T04:57:33.618Z,1.98
2022-10-06T05:00:36.104Z,0.90
2022-10-06T05:03:39.296Z,1.90
2022-10-06T05:06:42.722Z,1.35
2022-10-06T05:09:45.690Z,2.28
2022-10-06T05:12:48.027Z,2.50
2022-10-06T05:15:58.254Z,2.00
2022-10-06T05:19:02.140Z,1.73
2022-10-06T05:22:04.743Z,3.03
2022-10-06T05:25:07.671Z,2.70
2022-10-06T05:28:09.791Z,2.33
2022-10-06T05:31:20.084Z,3.17
2022-10-06T05:34:22.497Z,2.10
2022-10-06T05:37:26.268Z,2.42
2022-10-06T05:40:28.425Z,1.60
2022-10-06T05:43:31.758Z,1.77
2022-10-06T05:46:34.530Z,3.45
2022-10-06T05:49:36.962Z,2.78
2022-10-06T05:52:39.186Z,3.42
2022-10-06T05:55:41.882Z,2.65
2022-10-06T05:58:49.314Z,2.70
2022-10-06T06:01:52.199Z,2.60
2022-10-06T06:04:55.522Z,2.70
2022-10-06T06:07:57.693Z,1.92
2022-10-06T06:11:07.648Z,3.08
2022-10-06T06:14:12.453Z,2.42
2022-10-06T06:17:15.226Z,1.92
2022-10-06T06:20:17.354Z,2.37
2022-10-06T06:23:19.810Z,1.90
2022-10-06T06:26:24.973Z,3.40
2022-10-06T06:29:27.877Z,2.90
2022-10-06T06:32:31.727Z,2.75
2022-10-06T06:35:34.842Z,3.47
2022-10-06T06:38:37.004Z,2.80
2022-10-06T06:41:41.720Z,3.08
2022-10-06T06:44:44.497Z,2.62
2022-10-06T06:47:48.211Z,2.72
2022-10-06T06:50:58.292Z,3.12
2022-10-06T06:54:03.104Z,2.72
2022-10-06T06:57:07.208Z,2.40
2022-10-06T07:00:10.339Z,2.58
2022-10-06T07:03:16.739Z,3.50
2022-10-06T07:06:28.189Z,2.03
2022-10-06T07:12:34.039Z,2.75
2022-10-06T07:15:54.838Z,3.15
2022-10-06T07:19:16.051Z,4.65
2022-10-06T07:22:40.760Z,3.78
2022-10-06T07:25:43.433Z,3.17
2022-10-06T07:28:46.195Z,3.87
2022-10-06T07:31:50.028Z,2.65
2022-10-06T07:34:52.849Z,4.03
2022-10-06T07:37:55.734Z,5.75
2022-10-06T07:41:18.395Z,3.25
2022-10-06T07:44:22.022Z,4.00
2022-10-06T07:47:24.406Z,4.35
2022-10-06T07:50:26.979Z,5.03
2022-10-06T07:53:29.283Z,2.92
2022-10-06T07:56:31.913Z,4.78
2022-10-06T07:59:35.096Z,4.22
2022-10-06T08:02:39.112Z,3.85
2022-10-06T08:05:41.431Z,3.83
2022-10-06T08:08:47.091Z,4.43
2022-10-06T08:11:52.939Z,4.32
2022-10-06T08:14:55.321Z,3.47
2022-10-06T08:18:02.182Z,3.47
2022-10-06T08:21:15.425Z,4.22
2022-10-06T08:24:17.812Z,4.28
2022-10-06T08:27:19.864Z,5.22
2022-10-06T08:30:26.984Z,4.32
2022-10-06T08:33:29.030Z,3.92
2022-10-06T08:36:32.741Z,3.72
2022-10-06T08:39:34.948Z,4.12
2022-10-06T08:42:42.438Z,5.18
2022-10-06T08:45:46.759Z,4.62
2022-10-06T08:48:49.306Z,4.37
2022-10-06T08:52:03.234Z,3.60
2022-10-06T08:55:14.520Z,4.62
2022-10-06T08:58:36.323Z,4.95
2022-10-06T09:01:45.548Z,5.97
2022-10-06T09:04:49.597Z,5.25
2022-10-06T09:08:25.477Z,4.35
2022-10-06T09:12:03.305Z,5.32
2022-10-06T09:15:14.774Z,5.47
2022-10-06T09:18:49.457Z,4.22
2022-10-06T09:22:05.610Z,3.60
2022-10-06T09:25:28.449Z,3.80
2022-10-06T09:28:34.700Z,3.42
2022-10-06T09:31:40.217Z,4.32
2022-10-06T09:34:56.331Z,3.83
2022-10-06T09:38:08.368Z,4.18
2022-10-06T09:41:13.391Z,3.90
2022-10-06T09:44:24.922Z,3.95
2022-10-06T09:47:35.196Z,3.95
2022-10-06T09:50:37.308Z,4.10
2022-10-06T09:53:43.827Z,3.08
2022-10-06T09:56:47.257Z,3.92
2022-10-06T09:59:49.614Z,3.30
2022-10-06T10:03:04.253Z,3.72
2022-10-06T10:06:06.653Z,3.25
2022-10-06T10:09:23.941Z,4.80
2022-10-06T10:12:30.807Z,4.78
2022-10-06T10:15:53.467Z,3.77
2022-10-06T10:18:55.895Z,4.40
2022-10-06T10:21:59.837Z,3.40
2022-10-06T10:25:07.938Z,3.15
2022-10-06T10:28:28.723Z,3.40
2022-10-06T10:32:08.308Z,3.53
2022-10-06T10:35:56.859Z,3.62
2022-10-06T10:39:01.313Z,2.25
2022-10-06T10:42:13.828Z,3.53
2022-10-06T10:45:32.222Z,3.35
2022-10-06T10:48:42.657Z,2.80
2022-10-06T10:51:53.453Z,3.60
2022-10-06T10:55:26.702Z,3.05
2022-10-06T10:58:34.893Z,3.60
2022-10-06T11:01:53.490Z,3.87
2022-10-06T11:05:28.932Z,3.12
2022-10-06T11:08:56.309Z,3.47
2022-10-06T11:12:11.733Z,2.92
2022-10-06T11:15:37.084Z,3.70
2022-10-06T11:19:14.757Z,3.10
2022-10-06T11:22:43.911Z,3.22
2022-10-06T11:26:05.303Z,3.85
2022-10-06T11:29:27.062Z,3.33
2022-10-06T11:32:54.515Z,2.97
2022-10-06T11:35:56.618Z,3.25
2022-10-06T11:39:11.082Z,3.50
2022-10-06T11:42:49.023Z,2.72
2022-10-06T11:46:02.226Z,2.50
2022-10-06T11:49:28.721Z,2.37
2022-10-06T11:52:30.926Z,2.40
2022-10-06T11:55:32.975Z,2.75
2022-10-06T11:58:56.926Z,2.40
2022-10-06T12:02:01.313Z,2.40
2022-10-06T12:05:28.473Z,2.42
2022-10-06T12:11:43.002Z,2.85
2022-10-06T12:16:55.317Z,2.00
2022-10-06T12:18:37.660Z,2.53
2022-10-06T12:21:49.041Z,2.72
2022-10-06T12:25:00.888Z,3.00
2022-10-06T12:28:12.124Z,2.78
2022-10-06T12:31:41.348Z,2.95
2022-10-06T12:34:45.499Z,2.10
2022-10-06T12:37:54.894Z,2.22
2022-10-06T12:40:57.618Z,2.45
2022-10-06T12:44:00.689Z,2.90
2022-10-06T12:47:11.272Z,2.70
2022-10-06T12:50:25.887Z,2.42
2022-10-06T12:53:32.757Z,2.10
2022-10-06T12:56:40.897Z,1.87
2022-10-06T12:59:43.052Z,2.17
2022-10-06T13:02:45.798Z,2.30
2022-10-06T13:05:51.900Z,1.40
2022-10-06T13:09:13.824Z,1.77
2022-10-06T13:12:30.962Z,2.22
2022-10-06T13:15:35.525Z,1.70
2022-10-06T13:18:37.590Z,1.70
2022-10-06T13:21:39.932Z,2.10
2022-10-06T13:24:42.012Z,1.90
2022-10-06T13:27:51.861Z,2.25
2022-10-06T13:34:18.727Z,2.22
2022-10-06T13:37:20.863Z,2.03
2022-10-06T13:40:45.654Z,1.90
2022-10-06T13:43:54.815Z,2.08
2022-10-06T13:47:29.669Z,2.00
2022-10-06T13:50:31.916Z,1.87
2022-10-06T13:53:34.512Z,2.12
2022-10-06T13:56:40.331Z,1.85
2022-10-06T13:59:42.688Z,1.80
2022-10-06T14:02:48.184Z,2.30
2022-10-06T14:06:03.760Z,2.45
2022-10-06T14:09:12.090Z,1.85
2022-10-06T14:12:20.425Z,2.62
2022-10-06T14:15:28.547Z,2.62
2022-10-06T14:18:39.894Z,2.65
2022-10-06T14:21:44.780Z,2.35
2022-10-06T14:24:53.753Z,1.92
2022-10-06T14:27:55.921Z,1.55
2022-10-06T14:30:58.776Z,2.45
2022-10-06T14:34:02.421Z,3.00
2022-10-06T14:37:04.693Z,1.70
2022-10-06T14:40:11.829Z,2.25
2022-10-06T14:43:14.532Z,2.20
2022-10-06T14:46:16.760Z,1.98
2022-10-06T14:49:19.709Z,1.73
2022-10-06T14:52:22.199Z,2.40
2022-10-06T14:55:29.692Z,1.70
2022-10-06T15:01:37.719Z,2.35
2022-10-06T15:04:39.752Z,2.55
2022-10-06T15:08:00.873Z,1.90
2022-10-06T15:11:02.898Z,2.90
2022-10-06T15:14:08.453Z,2.30
2022-10-06T15:17:10.507Z,2.45
